YGAT weather

CLOSED Gatton Campus Airport
Gatton, Queensland, Australia

Public forecast

Using degrees Celsius for public forecast. Weather courtesy of forecast.io.

METAR (pilot weather report)

Closest report is RAAF Base Amberley, 20.3 nm (37.7 km) ESE. Retrieved 2019/04/18 14:30 UTC (17 minutes ago):

YAMB 181430Z AUTO 18002KT 9999 // NCD 16/14 Q1023

TAF (pilot weather forecast)

Forecast is more than 6 hours old.

Closest forecast is RAAF Base Amberley, 20.3 nm (37.7 km) ESE. Retrieved 2019/04/18 06:00 UTC (9 hours ago):

TAF YAMB 180506Z 1806/1824 13010KT 9999 FEW045 SCT060 FM181000 15006KT 9999 SCT040 FM181600 17004KT 9999 SCT025 BKN035 FM182300 14012KT 9999 -SHRA SCT035 BKN050